Time;durP1;ratioP1;P1;durP2;ratioP2;P2;SDS_P1;SDS_P2;PMS_P1;PMS_P2;Temp;Humidity;BMP_temperature;BMP_pressure;BME280_temperature;BME280_humidity;BME280_pressure;Samples;Min_cycle;Max_cycle;Signal;HPM_P1;HPM_P2
2023/10/09 00:03:19;;;;;;;3.00;1.23;;;;;;;;;;4826686;29;20208;-39
2023/10/09 00:05:46;;;;;;;3.47;1.40;;;;;;;;;;4826270;29;20247;-38
2023/10/09 00:08:30;;;;;;;2.75;1.20;;;;;;;;;;4826131;29;20212;-39
2023/10/09 00:11:13;;;;;;;2.08;1.08;;;;;;;;;;4826141;29;20658;-39
2023/10/09 00:13:51;;;;;;;1.42;1.00;;;;;;;;;;4826494;29;20219;-38
2023/10/09 00:16:32;;;;;;;3.22;1.60;;;;;;;;;;4826306;29;20238;-39
2023/10/09 00:19:16;;;;;;;6.25;1.30;;;;;;;;;;4826104;29;20215;-39
2023/10/09 00:21:45;;;;;;;2.78;1.20;;;;;;;;;;4826006;29;20196;-39
2023/10/09 00:24:24;;;;;;;2.60;1.20;;;;;;;;;;4826135;29;20284;-38
2023/10/09 00:26:55;;;;;;;3.33;1.48;;;;;;;;;;4825885;29;20684;-39
2023/10/09 00:29:23;;;;;;;2.70;1.15;;;;;;;;;;4825891;29;20670;-40
2023/10/09 00:32:13;;;;;;;2.38;1.08;;;;;;;;;;4825991;29;20216;-39
2023/10/09 00:34:39;;;;;;;1.92;1.05;;;;;;;;;;4839772;29;20653;-39
2023/10/09 00:37:16;;;;;;;2.88;1.55;;;;;;;;;;4825801;29;20231;-38
2023/10/09 00:39:44;;;;;;;2.45;1.48;;;;;;;;;;4825818;29;20704;-38
2023/10/09 00:42:21;;;;;;;3.85;1.33;;;;;;;;;;4825692;29;20734;-39
2023/10/09 00:44:49;;;;;;;4.03;1.70;;;;;;;;;;4840134;29;20252;-39
2023/10/09 00:47:22;;;;;;;3.33;1.35;;;;;;;;;;4825771;29;20296;-40
2023/10/09 00:49:59;;;;;;;3.78;1.40;;;;;;;;;;4839083;29;20203;-39
2023/10/09 00:52:43;;;;;;;3.83;1.70;;;;;;;;;;4824791;29;20208;-39
2023/10/09 00:55:20;;;;;;;2.15;1.30;;;;;;;;;;4839645;29;20330;-39
2023/10/09 00:57:59;;;;;;;2.92;1.40;;;;;;;;;;4839604;29;20216;-38
2023/10/09 01:00:45;;;;;;;3.85;1.58;;;;;;;;;;4825400;29;20273;-39
2023/10/09 01:06:03;;;;;;;2.95;1.35;;;;;;;;;;4839489;29;20216;-40
2023/10/09 01:08:30;;;;;;;2.75;1.20;;;;;;;;;;4825735;29;20666;-40
2023/10/09 01:11:09;;;;;;;2.67;1.35;;;;;;;;;;4825172;29;20634;-38
2023/10/09 01:13:52;;;;;;;7.63;1.75;;;;;;;;;;4825613;29;20216;-39
2023/10/09 01:16:22;;;;;;;3.28;1.40;;;;;;;;;;4825450;29;20216;-38
2023/10/09 01:18:52;;;;;;;5.25;1.90;;;;;;;;;;4825335;29;20216;-38
2023/10/09 01:21:26;;;;;;;4.30;1.83;;;;;;;;;;4825056;29;20212;-38
2023/10/09 01:24:03;;;;;;;5.35;1.88;;;;;;;;;;4839248;29;20204;-39
2023/10/09 01:26:39;;;;;;;2.97;1.45;;;;;;;;;;4839349;29;20249;-39
2023/10/09 01:29:19;;;;;;;3.72;1.55;;;;;;;;;;4825097;29;20208;-39
2023/10/09 01:31:56;;;;;;;3.95;1.63;;;;;;;;;;4823900;29;20219;-39
2023/10/09 01:34:34;;;;;;;5.15;1.45;;;;;;;;;;4824872;29;20220;-39
2023/10/09 01:37:27;;;;;;;3.45;1.60;;;;;;;;;;4839288;29;20288;-39
2023/10/09 01:40:04;;;;;;;2.95;1.65;;;;;;;;;;4838999;29;20219;-38
2023/10/09 01:42:34;;;;;;;2.92;1.77;;;;;;;;;;4825150;29;20211;-38
2023/10/09 01:45:12;;;;;;;4.95;1.73;;;;;;;;;;4824256;29;20216;-38
2023/10/09 01:47:39;;;;;;;3.88;1.73;;;;;;;;;;4824771;29;20201;-38
2023/10/09 01:50:27;;;;;;;3.55;1.63;;;;;;;;;;4824697;29;20681;-40
2023/10/09 01:52:54;;;;;;;2.80;1.70;;;;;;;;;;4824733;29;20655;-38
2023/10/09 01:55:29;;;;;;;4.57;1.45;;;;;;;;;;4824690;29;20244;-39
2023/10/09 01:57:58;;;;;;;4.18;1.85;;;;;;;;;;4838798;29;20216;-39
2023/10/09 02:00:29;;;;;;;4.32;1.85;;;;;;;;;;4823618;29;20557;-38
2023/10/09 02:03:02;;;;;;;2.72;1.42;;;;;;;;;;4824628;29;20295;-38
2023/10/09 02:05:33;;;;;;;5.40;1.83;;;;;;;;;;4838464;29;20223;-40
2023/10/09 02:08:03;;;;;;;2.67;1.55;;;;;;;;;;4824856;29;20216;-39
2023/10/09 02:13:10;;;;;;;2.30;1.50;;;;;;;;;;4838476;29;20674;-38
2023/10/09 02:15:45;;;;;;;2.28;1.45;;;;;;;;;;4838390;29;20236;-39
2023/10/09 02:23:49;;;;;;;4.65;1.88;;;;;;;;;;4824431;29;20617;-38
2023/10/09 02:29:15;;;;;;;2.83;1.40;;;;;;;;;;4824277;29;20580;-39
2023/10/09 02:31:51;;;;;;;3.13;1.45;;;;;;;;;;4824357;29;20244;-39
2023/10/09 02:34:23;;;;;;;1.70;1.27;;;;;;;;;;4824092;29;20666;-38
2023/10/09 02:36:57;;;;;;;5.63;1.70;;;;;;;;;;4824475;29;20757;-39
2023/10/09 02:39:26;;;;;;;3.63;1.83;;;;;;;;;;4824202;29;20677;-39
2023/10/09 02:42:01;;;;;;;4.68;1.55;;;;;;;;;;4824284;29;20313;-39
2023/10/09 02:44:39;;;;;;;3.10;1.27;;;;;;;;;;4824275;29;20284;-39
2023/10/09 02:47:17;;;;;;;4.63;1.92;;;;;;;;;;4824393;29;20290;-39
2023/10/09 02:49:48;;;;;;;3.03;1.40;;;;;;;;;;4824296;29;20237;-38
2023/10/09 02:52:19;;;;;;;2.40;2.00;;;;;;;;;;4824484;29;20219;-38
2023/10/09 02:54:47;;;;;;;3.38;1.83;;;;;;;;;;4837989;29;20248;-39
2023/10/09 02:57:23;;;;;;;2.22;1.40;;;;;;;;;;4823951;29;20212;-39
2023/10/09 02:59:51;;;;;;;5.00;1.63;;;;;;;;;;4824247;29;20576;-39
2023/10/09 03:02:19;;;;;;;5.32;1.90;;;;;;;;;;4824087;29;20217;-38
2023/10/09 03:04:46;;;;;;;4.03;1.67;;;;;;;;;;4824277;29;20219;-38
2023/10/09 03:07:13;;;;;;;4.45;1.98;;;;;;;;;;4823998;29;20215;-39
2023/10/09 03:09:41;;;;;;;5.15;2.60;;;;;;;;;;4823910;29;20213;-39
2023/10/09 03:12:12;;;;;;;8.45;3.42;;;;;;;;;;4824141;29;20776;-39
2023/10/09 03:14:41;;;;;;;7.13;2.90;;;;;;;;;;4826745;29;20232;-38
2023/10/09 03:17:11;;;;;;;12.80;5.30;;;;;;;;;;4827144;29;20261;-39
2023/10/09 03:19:41;;;;;;;7.88;3.30;;;;;;;;;;4841406;29;20200;-39
2023/10/09 03:22:09;;;;;;;10.10;2.60;;;;;;;;;;4826914;29;20747;-38
2023/10/09 03:24:43;;;;;;;4.35;1.85;;;;;;;;;;4826932;29;20659;-39
2023/10/09 03:27:14;;;;;;;5.60;1.98;;;;;;;;;;4841297;29;20240;-38
2023/10/09 03:29:41;;;;;;;4.40;1.73;;;;;;;;;;4840765;29;20264;-40
2023/10/09 03:32:08;;;;;;;3.87;1.40;;;;;;;;;;4826694;29;20670;-39
2023/10/09 03:34:36;;;;;;;2.85;1.38;;;;;;;;;;4826632;29;20208;-39
2023/10/09 03:37:11;;;;;;;1.95;1.42;;;;;;;;;;4826875;29;20232;-40
2023/10/09 03:39:40;;;;;;;2.85;1.50;;;;;;;;;;4826882;29;20215;-39
2023/10/09 03:42:18;;;;;;;3.60;1.50;;;;;;;;;;4826561;29;20663;-39
2023/10/09 03:44:52;;;;;;;3.25;1.60;;;;;;;;;;4826891;29;20272;-40
2023/10/09 03:47:23;;;;;;;4.22;1.58;;;;;;;;;;4826603;29;20212;-39
2023/10/09 03:49:54;;;;;;;7.88;2.47;;;;;;;;;;4825908;29;20208;-39
2023/10/09 03:52:25;;;;;;;10.70;4.65;;;;;;;;;;4826345;29;20615;-42
2023/10/09 03:54:54;;;;;;;11.90;4.20;;;;;;;;;;4825931;29;20259;-39
2023/10/09 03:57:23;;;;;;;6.57;2.20;;;;;;;;;;4826279;29;20295;-40
2023/10/09 03:59:51;;;;;;;6.90;2.35;;;;;;;;;;4823719;29;20682;-40
2023/10/09 04:02:21;;;;;;;11.13;3.08;;;;;;;;;;4823858;29;20231;-40
2023/10/09 04:04:50;;;;;;;9.18;3.15;;;;;;;;;;4825211;29;20244;-39
2023/10/09 04:07:18;;;;;;;6.40;2.03;;;;;;;;;;4826131;29;20722;-39
2023/10/09 04:09:47;;;;;;;12.10;4.55;;;;;;;;;;4826727;29;20611;-39
2023/10/09 04:12:24;;;;;;;5.38;3.00;;;;;;;;;;4841972;29;20231;-40
2023/10/09 04:14:57;;;;;;;14.07;4.68;;;;;;;;;;4806922;29;20747;-39
2023/10/09 04:17:34;;;;;;;234.53;94.10;;;;;;;;;;4835001;29;20254;-40
2023/10/09 04:20:55;;;;;;;455.38;132.18;;;;;;;;;;4823181;29;20235;-38
2023/10/09 04:23:05;;;;;;;85.38;21.95;;;;;;;;;;4824824;29;20228;-41
2023/10/09 04:25:42;;;;;;;27.00;6.78;;;;;;;;;;4826569;29;20216;-39
2023/10/09 04:28:18;;;;;;;19.83;6.37;;;;;;;;;;4833138;29;20239;-39
2023/10/09 04:30:53;;;;;;;45.25;13.38;;;;;;;;;;4828949;29;20232;-39
2023/10/09 04:42:18;;;;;;;63.33;13.93;;;;;;;;;;4839041;29;20255;-39
2023/10/09 04:44:22;;;;;;;34.42;9.32;;;;;;;;;;4842866;29;20227;-39
2023/10/09 04:50:01;;;;;;;12.98;3.90;;;;;;;;;;4842963;29;20246;-38
2023/10/09 04:58:23;;;;;;;61.30;12.75;;;;;;;;;;4842836;29;20218;-39
2023/10/09 05:02:58;;;;;;;5.30;2.55;;;;;;;;;;4842133;29;20231;-40
2023/10/09 05:16:26;;;;;;;9.88;2.92;;;;;;;;;;4857732;29;20727;-38
2023/10/09 05:18:56;;;;;;;18.42;5.03;;;;;;;;;;4857548;29;20303;-39
2023/10/09 05:29:58;;;;;;;14.70;3.67;;;;;;;;;;4858477;29;20354;-38
2023/10/09 05:37:32;;;;;;;28.35;6.88;;;;;;;;;;4859254;29;20292;-40
2023/10/09 05:47:53;;;;;;;15.80;5.18;;;;;;;;;;4843061;29;20211;-38
2023/10/09 06:08:47;;;;;;;16.48;5.97;;;;;;;;;;4842831;29;20227;-38
2023/10/09 06:19:26;;;;;;;20.33;5.57;;;;;;;;;;4842653;29;20207;-38
2023/10/09 06:30:15;;;;;;;28.20;7.18;;;;;;;;;;4842672;29;20571;-38
2023/10/09 06:35:22;;;;;;;17.00;5.55;;;;;;;;;;4842617;29;20212;-43
2023/10/09 06:45:54;;;;;;;10.02;4.25;;;;;;;;;;4842579;29;20203;-39
2023/10/09 06:54:04;;;;;;;10.85;4.05;;;;;;;;;;4845677;29;20271;-39
2023/10/09 06:59:17;;;;;;;9.73;3.55;;;;;;;;;;4845648;29;20208;-39
2023/10/09 07:06:59;;;;;;;9.73;4.15;;;;;;;;;;4845637;29;20223;-39
2023/10/09 07:10:28;;;;;;;11.63;3.63;;;;;;;;;;4845577;29;20212;-39
2023/10/09 07:12:42;;;;;;;10.55;3.45;;;;;;;;;;4845658;29;20234;-39
2023/10/09 07:16:23;;;;;;;7.50;3.53;;;;;;;;;;4845419;29;20207;-38
2023/10/09 07:18:23;;;;;;;10.20;4.28;;;;;;;;;;4845714;29;20219;-41
2023/10/09 07:21:01;;;;;;;8.60;3.10;;;;;;;;;;4845338;29;20211;-39
2023/10/09 07:23:32;;;;;;;10.43;4.13;;;;;;;;;;4845738;29;20234;-39
2023/10/09 07:26:18;;;;;;;11.73;5.25;;;;;;;;;;4845212;29;20653;-39
2023/10/09 07:28:48;;;;;;;18.02;6.07;;;;;;;;;;4844542;29;20207;-39
2023/10/09 07:31:27;;;;;;;6.97;3.70;;;;;;;;;;4845358;29;20302;-39
2023/10/09 07:33:57;;;;;;;15.23;5.00;;;;;;;;;;4845445;29;20208;-38
2023/10/09 07:36:37;;;;;;;8.55;3.88;;;;;;;;;;4845433;29;20227;-39
2023/10/09 07:39:16;;;;;;;16.60;6.90;;;;;;;;;;4845353;29;20261;-39
2023/10/09 07:42:14;;;;;;;18.17;6.68;;;;;;;;;;4845176;29;20234;-39
2023/10/09 07:44:36;;;;;;;16.65;5.72;;;;;;;;;;4845556;29;20575;-40
2023/10/09 07:47:17;;;;;;;14.95;5.50;;;;;;;;;;4845057;29;20218;-39
2023/10/09 07:49:53;;;;;;;10.45;4.70;;;;;;;;;;4844912;29;20215;-38
2023/10/09 07:52:26;;;;;;;13.90;5.82;;;;;;;;;;4845214;29;20259;-39
2023/10/09 07:55:01;;;;;;;13.75;5.45;;;;;;;;;;4845134;29;20272;-40
2023/10/09 07:57:38;;;;;;;8.68;4.40;;;;;;;;;;4845149;29;20260;-39
2023/10/09 08:00:35;;;;;;;8.85;4.13;;;;;;;;;;4844890;29;20215;-39
2023/10/09 08:03:00;;;;;;;7.63;4.15;;;;;;;;;;4858822;29;20658;-39
2023/10/09 08:05:44;;;;;;;9.90;4.95;;;;;;;;;;4844530;29;20207;-40
2023/10/09 08:08:39;;;;;;;11.60;4.45;;;;;;;;;;4844579;29;20264;-39
2023/10/09 08:11:59;;;;;;;12.18;5.95;;;;;;;;;;4844726;29;20216;-39
2023/10/09 08:17:05;;;;;;;13.70;6.60;;;;;;;;;;4844716;29;20239;-39
2023/10/09 08:19:32;;;;;;;7.93;4.13;;;;;;;;;;4844514;29;20207;-40
2023/10/09 08:25:06;;;;;;;4.82;2.60;;;;;;;;;;4879311;29;20226;-39
2023/10/09 08:33:02;;;;;;;8.13;4.82;;;;;;;;;;4879048;29;20201;-39
2023/10/09 08:35:35;;;;;;;8.93;3.22;;;;;;;;;;4879256;29;20217;-38
2023/10/09 08:38:07;;;;;;;8.90;2.97;;;;;;;;;;4878989;29;20254;-38
2023/10/09 08:40:38;;;;;;;11.07;3.60;;;;;;;;;;4879209;29;20696;-39
2023/10/09 08:43:10;;;;;;;6.53;3.45;;;;;;;;;;4879059;29;20242;-40
2023/10/09 08:45:41;;;;;;;6.25;3.30;;;;;;;;;;4878895;29;20756;-40
2023/10/09 08:48:15;;;;;;;6.95;3.10;;;;;;;;;;4878959;29;20217;-39
2023/10/09 08:50:46;;;;;;;6.20;2.85;;;;;;;;;;4879127;29;20210;-39
2023/10/09 08:53:14;;;;;;;4.95;2.50;;;;;;;;;;4878722;29;20209;-39
2023/10/09 08:55:41;;;;;;;5.78;2.45;;;;;;;;;;4864165;29;20247;-39
2023/10/09 08:58:28;;;;;;;5.53;2.53;;;;;;;;;;4843646;29;20724;-41
2023/10/09 09:00:55;;;;;;;4.15;1.90;;;;;;;;;;4843677;29;20268;-39
2023/10/09 09:03:23;;;;;;;4.10;1.63;;;;;;;;;;4843414;29;20264;-39
2023/10/09 09:06:00;;;;;;;2.50;1.83;;;;;;;;;;4843549;29;20242;-43
2023/10/09 09:08:36;;;;;;;4.47;2.10;;;;;;;;;;4843752;29;20267;-39
2023/10/09 09:14:06;;;;;;;4.57;2.05;;;;;;;;;;4878310;29;20216;-40
2023/10/09 09:16:38;;;;;;;4.13;1.90;;;;;;;;;;4878184;29;20312;-39
2023/10/09 09:21:44;;;;;;;2.78;1.48;;;;;;;;;;4878252;29;20206;-39
2023/10/09 09:26:59;;;;;;;5.78;1.80;;;;;;;;;;4878288;29;20213;-39
2023/10/09 09:29:38;;;;;;;5.70;2.13;;;;;;;;;;4878167;29;20258;-39
2023/10/09 09:32:20;;;;;;;4.90;2.20;;;;;;;;;;4878149;29;20292;-39
2023/10/09 09:34:49;;;;;;;3.67;1.75;;;;;;;;;;4877908;29;20267;-39
2023/10/09 09:37:28;;;;;;;4.05;1.80;;;;;;;;;;4878066;29;20250;-39
2023/10/09 09:39:58;;;;;;;3.25;1.77;;;;;;;;;;4878135;29;20206;-40
2023/10/09 09:42:25;;;;;;;4.10;1.90;;;;;;;;;;4877981;29;20700;-38
2023/10/09 09:44:52;;;;;;;2.47;1.42;;;;;;;;;;4878023;29;20633;-39
2023/10/09 09:47:29;;;;;;;4.78;1.70;;;;;;;;;;4877927;29;20210;-39
2023/10/09 09:50:00;;;;;;;3.47;1.60;;;;;;;;;;4857532;29;20215;-39
2023/10/09 09:52:38;;;;;;;3.33;1.73;;;;;;;;;;4842987;29;20669;-39
2023/10/09 09:55:17;;;;;;;3.85;1.60;;;;;;;;;;4843114;29;20247;-40
2023/10/09 09:57:45;;;;;;;6.70;1.70;;;;;;;;;;4842903;29;20223;-39
2023/10/09 10:00:28;;;;;;;2.92;1.35;;;;;;;;;;4842730;29;20218;-39
2023/10/09 10:03:06;;;;;;;2.95;1.27;;;;;;;;;;4842782;29;20718;-39
2023/10/09 10:05:34;;;;;;;2.70;1.60;;;;;;;;;;4841444;29;20669;-38
2023/10/09 10:08:04;;;;;;;3.80;1.70;;;;;;;;;;4856787;29;20291;-39
2023/10/09 10:10:47;;;;;;;6.10;1.80;;;;;;;;;;4841546;29;20740;-39
2023/10/09 10:13:23;;;;;;;4.95;1.77;;;;;;;;;;4843110;29;20219;-39
2023/10/09 10:16:00;;;;;;;3.17;1.60;;;;;;;;;;4842887;29;20211;-39
2023/10/09 10:18:32;;;;;;;2.72;1.60;;;;;;;;;;4856916;29;20262;-39
2023/10/09 10:24:05;;;;;;;3.67;1.75;;;;;;;;;;4845746;29;20288;-39
2023/10/09 10:26:36;;;;;;;2.50;1.38;;;;;;;;;;4846411;29;20223;-39
2023/10/09 10:29:23;;;;;;;6.00;1.73;;;;;;;;;;4846324;29;20204;-39
2023/10/09 10:32:06;;;;;;;6.05;1.92;;;;;;;;;;4846290;29;20207;-39
2023/10/09 10:34:46;;;;;;;3.45;1.50;;;;;;;;;;4846371;29;20203;-39
2023/10/09 10:37:14;;;;;;;2.45;1.38;;;;;;;;;;4846334;29;20242;-41
2023/10/09 10:39:59;;;;;;;2.47;1.15;;;;;;;;;;4846183;29;20661;-39
2023/10/09 10:42:35;;;;;;;6.70;1.30;;;;;;;;;;4846293;29;20212;-40
2023/10/09 10:45:03;;;;;;;3.55;1.17;;;;;;;;;;4846279;29;20234;-40
2023/10/09 10:47:34;;;;;;;3.00;1.35;;;;;;;;;;4845985;29;20219;-39
2023/10/09 10:50:34;;;;;;;2.45;1.25;;;;;;;;;;4846072;29;20235;-39
2023/10/09 10:52:57;;;;;;;2.28;1.30;;;;;;;;;;4846183;29;20212;-39
2023/10/09 10:58:13;;;;;;;2.58;1.20;;;;;;;;;;4846101;29;20235;-39
2023/10/09 11:03:55;;;;;;;2.85;1.20;;;;;;;;;;4880554;29;20217;-39
2023/10/09 11:06:37;;;;;;;2.90;1.30;;;;;;;;;;4880784;29;20587;-39
2023/10/09 11:09:10;;;;;;;3.58;1.25;;;;;;;;;;4880828;29;20213;-40
2023/10/09 11:11:42;;;;;;;1.95;0.85;;;;;;;;;;4880781;29;20206;-40
2023/10/09 11:14:23;;;;;;;2.30;1.10;;;;;;;;;;4880523;29;20254;-40
2023/10/09 11:16:51;;;;;;;2.00;0.98;;;;;;;;;;4880706;29;20233;-39
2023/10/09 11:19:31;;;;;;;2.35;1.00;;;;;;;;;;4880360;29;20214;-39
2023/10/09 11:24:34;;;;;;;1.95;0.95;;;;;;;;;;4880622;29;20209;-39
2023/10/09 11:27:06;;;;;;;2.70;1.20;;;;;;;;;;4880241;29;20672;-39
2023/10/09 11:32:19;;;;;;;3.13;1.08;;;;;;;;;;4880575;29;20212;-39
2023/10/09 11:34:53;;;;;;;2.10;1.10;;;;;;;;;;4859558;29;20211;-40
2023/10/09 11:40:00;;;;;;;1.52;1.05;;;;;;;;;;4845156;29;20259;-40
2023/10/09 11:45:37;;;;;;;1.58;1.05;;;;;;;;;;4845611;29;20207;-41
2023/10/09 11:48:46;;;;;;;1.75;0.82;;;;;;;;;;4845175;29;20294;-39
2023/10/09 11:51:21;;;;;;;2.47;1.00;;;;;;;;;;4845019;29;20681;-39
2023/10/09 11:53:54;;;;;;;2.08;1.10;;;;;;;;;;4844736;29;20217;-40
2023/10/09 11:56:22;;;;;;;5.07;1.23;;;;;;;;;;4845004;29;20259;-40
2023/10/09 11:58:52;;;;;;;1.60;0.90;;;;;;;;;;4844632;29;20235;-39
2023/10/09 12:01:21;;;;;;;2.88;1.20;;;;;;;;;;4858696;29;20219;-39
2023/10/09 12:03:52;;;;;;;3.28;0.95;;;;;;;;;;4845154;29;20223;-39
2023/10/09 12:06:24;;;;;;;3.15;0.95;;;;;;;;;;4844550;29;20241;-39
2023/10/09 12:08:51;;;;;;;1.98;0.82;;;;;;;;;;4844754;29;20230;-39
2023/10/09 12:11:22;;;;;;;2.53;1.30;;;;;;;;;;4844463;29;20211;-39
2023/10/09 12:13:56;;;;;;;1.70;0.80;;;;;;;;;;4844507;29;20211;-39
2023/10/09 12:16:27;;;;;;;2.35;1.10;;;;;;;;;;4844665;29;20218;-39
2023/10/09 12:18:56;;;;;;;2.67;1.17;;;;;;;;;;4844587;29;20227;-41
2023/10/09 12:21:23;;;;;;;3.65;1.40;;;;;;;;;;4844541;29;20271;-39
2023/10/09 12:23:50;;;;;;;4.15;1.30;;;;;;;;;;4844362;29;20272;-39
2023/10/09 12:26:18;;;;;;;2.28;1.10;;;;;;;;;;4844762;29;20235;-40
2023/10/09 12:28:49;;;;;;;2.30;1.10;;;;;;;;;;4844254;29;20299;-39
2023/10/09 12:31:20;;;;;;;3.22;1.13;;;;;;;;;;4844568;29;20226;-39
2023/10/09 12:33:47;;;;;;;1.50;0.75;;;;;;;;;;4844271;29;20207;-39
2023/10/09 12:36:19;;;;;;;3.33;1.52;;;;;;;;;;4835717;29;20228;-39
2023/10/09 12:38:53;;;;;;;1.63;1.02;;;;;;;;;;4822961;29;20234;-40
2023/10/09 12:41:28;;;;;;;5.43;2.60;;;;;;;;;;4838882;29;20239;-39
2023/10/09 12:43:57;;;;;;;3.08;1.13;;;;;;;;;;4806572;29;20305;-40
2023/10/09 12:46:26;;;;;;;2.40;0.93;;;;;;;;;;4834975;29;20803;-42
2023/10/09 12:48:57;;;;;;;4.97;1.80;;;;;;;;;;4834047;29;20406;-39
2023/10/09 12:51:30;;;;;;;2.92;1.50;;;;;;;;;;4843124;29;20235;-39
2023/10/09 12:53:58;;;;;;;2.65;0.93;;;;;;;;;;4838270;29;20304;-40
2023/10/09 12:56:32;;;;;;;2.03;1.00;;;;;;;;;;4825216;29;20600;-38
2023/10/09 12:59:01;;;;;;;4.40;1.20;;;;;;;;;;4828276;29;20273;-40
2023/10/09 13:01:32;;;;;;;5.80;1.13;;;;;;;;;;4840060;29;20227;-39
2023/10/09 13:04:11;;;;;;;2.72;1.17;;;;;;;;;;4843299;29;20291;-39
2023/10/09 13:06:45;;;;;;;3.90;1.55;;;;;;;;;;4842841;29;20227;-40
2023/10/09 13:09:16;;;;;;;2.13;0.90;;;;;;;;;;4832603;29;20701;-39
2023/10/09 13:11:49;;;;;;;2.85;1.00;;;;;;;;;;4829548;29;20276;-39
2023/10/09 13:14:23;;;;;;;2.60;1.08;;;;;;;;;;4832503;29;20224;-39
2023/10/09 13:16:50;;;;;;;2.10;1.00;;;;;;;;;;4823290;29;20554;-39
2023/10/09 13:19:17;;;;;;;1.70;0.85;;;;;;;;;;4824666;29;20284;-40
2023/10/09 13:21:45;;;;;;;2.95;1.10;;;;;;;;;;4824306;29;20721;-42
2023/10/09 13:24:15;;;;;;;2.60;1.52;;;;;;;;;;4824117;29;20239;-41
2023/10/09 13:26:51;;;;;;;1.55;1.00;;;;;;;;;;4824307;29;20232;-40
2023/10/09 13:29:24;;;;;;;4.85;1.30;;;;;;;;;;4824073;29;20228;-39
2023/10/09 13:31:57;;;;;;;2.03;1.20;;;;;;;;;;4824478;29;20258;-38
2023/10/09 13:34:27;;;;;;;6.13;1.70;;;;;;;;;;4824774;29;20232;-38
2023/10/09 13:36:58;;;;;;;3.53;1.30;;;;;;;;;;4824289;29;20289;-39
2023/10/09 13:39:26;;;;;;;4.53;1.40;;;;;;;;;;4823854;29;20787;-38
2023/10/09 13:41:58;;;;;;;4.68;2.17;;;;;;;;;;4823809;29;20236;-37
2023/10/09 13:44:34;;;;;;;3.17;1.40;;;;;;;;;;4824488;29;20238;-38
2023/10/09 13:47:05;;;;;;;3.35;1.58;;;;;;;;;;4824026;29;20670;-39
2023/10/09 13:49:33;;;;;;;5.82;1.77;;;;;;;;;;4824049;29;20248;-39
2023/10/09 13:52:02;;;;;;;6.40;2.35;;;;;;;;;;4823936;29;20235;-39
2023/10/09 13:57:04;;;;;;;6.07;2.25;;;;;;;;;;4841866;29;20233;-38
2023/10/09 13:59:34;;;;;;;4.25;1.90;;;;;;;;;;4842060;29;20269;-39
2023/10/09 14:02:09;;;;;;;5.95;2.20;;;;;;;;;;4825045;29;20243;-42
2023/10/09 14:04:37;;;;;;;5.22;2.08;;;;;;;;;;4823419;29;20346;-42
2023/10/09 14:07:05;;;;;;;7.13;2.30;;;;;;;;;;4820869;29;20625;-43
2023/10/09 14:09:54;;;;;;;213.50;75.95;;;;;;;;;;4821493;29;20232;-40
2023/10/09 14:12:24;;;;;;;100.47;35.80;;;;;;;;;;4820954;29;20694;-41
2023/10/09 14:14:53;;;;;;;64.10;15.68;;;;;;;;;;4821662;29;20228;-39
2023/10/09 14:17:25;;;;;;;49.08;11.57;;;;;;;;;;4823808;29;20236;-39
2023/10/09 14:19:54;;;;;;;31.17;9.13;;;;;;;;;;4824008;29;20288;-39
2023/10/09 14:22:29;;;;;;;12.40;3.97;;;;;;;;;;4822271;29;20284;-39
2023/10/09 14:24:56;;;;;;;23.33;6.68;;;;;;;;;;4826181;29;20237;-40
2023/10/09 14:27:27;;;;;;;37.97;9.88;;;;;;;;;;4822741;29;20228;-42
2023/10/09 14:29:56;;;;;;;25.85;6.93;;;;;;;;;;4822250;29;20228;-40
2023/10/09 14:32:28;;;;;;;157.63;46.53;;;;;;;;;;4822679;29;20233;-41
2023/10/09 14:35:00;;;;;;;41.30;9.80;;;;;;;;;;4836220;29;20290;-42
2023/10/09 14:37:28;;;;;;;25.48;7.22;;;;;;;;;;4822453;29;20235;-38
2023/10/09 14:39:58;;;;;;;13.30;5.35;;;;;;;;;;4822770;29;20243;-39
2023/10/09 14:42:27;;;;;;;30.77;9.65;;;;;;;;;;4822745;29;20685;-40
2023/10/09 14:44:57;;;;;;;11.65;5.22;;;;;;;;;;4820084;29;20225;-38
2023/10/09 14:47:25;;;;;;;15.98;5.18;;;;;;;;;;4822347;29;20216;-43
2023/10/09 14:49:53;;;;;;;54.40;18.90;;;;;;;;;;4822744;29;20255;-42
2023/10/09 14:52:21;;;;;;;129.07;24.73;;;;;;;;;;4821794;29;20212;-40
2023/10/09 14:54:50;;;;;;;28.02;8.63;;;;;;;;;;4822026;29;20244;-41
2023/10/09 14:57:19;;;;;;;36.90;11.77;;;;;;;;;;4822462;29;20215;-43
2023/10/09 14:59:46;;;;;;;27.67;8.32;;;;;;;;;;4836217;29;20277;-44
2023/10/09 15:02:14;;;;;;;32.05;9.25;;;;;;;;;;4822966;29;20208;-38
2023/10/09 15:04:41;;;;;;;23.08;7.88;;;;;;;;;;4823758;29;20217;-39
2023/10/09 15:07:09;;;;;;;17.85;5.35;;;;;;;;;;4823295;29;20239;-39
2023/10/09 15:09:36;;;;;;;50.90;17.77;;;;;;;;;;4824354;29;20212;-39
2023/10/09 15:12:07;;;;;;;36.83;9.70;;;;;;;;;;4826897;29;20220;-39
2023/10/09 15:14:34;;;;;;;21.77;7.13;;;;;;;;;;4825941;29;20257;-41
2023/10/09 15:17:02;;;;;;;17.38;6.28;;;;;;;;;;4825733;29;20220;-39
2023/10/09 15:19:30;;;;;;;16.55;4.88;;;;;;;;;;4825725;29;20232;-39
2023/10/09 15:21:59;;;;;;;17.23;5.45;;;;;;;;;;4824269;29;20223;-38
2023/10/09 15:24:27;;;;;;;31.95;10.32;;;;;;;;;;4826376;29;20670;-38
2023/10/09 15:26:58;;;;;;;38.70;14.65;;;;;;;;;;4826241;29;20251;-39
2023/10/09 15:29:30;;;;;;;38.42;9.50;;;;;;;;;;4824861;29;20212;-38
2023/10/09 15:32:04;;;;;;;36.22;10.52;;;;;;;;;;4824944;29;20240;-39
2023/10/09 15:34:35;;;;;;;21.90;7.22;;;;;;;;;;4825976;29;20317;-38
2023/10/09 15:37:03;;;;;;;14.00;5.10;;;;;;;;;;4826264;29;20208;-40
2023/10/09 15:39:31;;;;;;;7.65;3.08;;;;;;;;;;4825678;29;20728;-38
2023/10/09 15:41:59;;;;;;;8.38;2.88;;;;;;;;;;4824999;29;20216;-39
2023/10/09 15:44:27;;;;;;;7.88;2.95;;;;;;;;;;4826640;29;20211;-40
2023/10/09 15:46:59;;;;;;;7.78;3.05;;;;;;;;;;4824759;29;20208;-40
2023/10/09 15:49:41;;;;;;;6.50;2.78;;;;;;;;;;4829333;29;20208;-40
2023/10/09 15:52:08;;;;;;;8.20;3.33;;;;;;;;;;4822590;29;20236;-38
2023/10/09 15:54:36;;;;;;;9.10;3.63;;;;;;;;;;4824768;29;20255;-39
2023/10/09 15:57:05;;;;;;;8.18;3.33;;;;;;;;;;4824896;29;20243;-41
2023/10/09 15:59:39;;;;;;;12.18;3.80;;;;;;;;;;4827257;29;20327;-42
2023/10/09 16:02:07;;;;;;;15.68;6.30;;;;;;;;;;4829036;29;20233;-39
2023/10/09 16:04:34;;;;;;;36.85;10.00;;;;;;;;;;4838866;29;20800;-38
2023/10/09 16:07:05;;;;;;;42.33;11.55;;;;;;;;;;4821884;29;20232;-38
2023/10/09 16:09:37;;;;;;;11.80;3.80;;;;;;;;;;4824813;29;20273;-38
2023/10/09 16:12:06;;;;;;;11.68;4.40;;;;;;;;;;4824787;29;20757;-39
2023/10/09 16:14:34;;;;;;;7.93;3.33;;;;;;;;;;4825308;29;21228;-39
2023/10/09 16:17:02;;;;;;;7.85;2.80;;;;;;;;;;4825389;29;20229;-37
2023/10/09 16:19:32;;;;;;;8.07;3.55;;;;;;;;;;4833031;29;20243;-39
2023/10/09 16:22:03;;;;;;;6.97;2.60;;;;;;;;;;4823934;29;20232;-39
2023/10/09 16:24:35;;;;;;;6.75;2.90;;;;;;;;;;4824926;29;20361;-39
2023/10/09 16:27:07;;;;;;;6.47;3.42;;;;;;;;;;4810828;29;20224;-40
2023/10/09 16:29:35;;;;;;;4.95;2.50;;;;;;;;;;4806872;29;20710;-38
2023/10/09 16:32:02;;;;;;;7.25;3.22;;;;;;;;;;4806859;29;20245;-40
2023/10/09 16:34:29;;;;;;;9.57;3.30;;;;;;;;;;4806777;29;20252;-38
2023/10/09 16:36:57;;;;;;;6.28;3.25;;;;;;;;;;4806659;29;20236;-41
2023/10/09 16:39:24;;;;;;;6.57;3.50;;;;;;;;;;4806685;29;20677;-40
2023/10/09 16:41:53;;;;;;;11.45;4.57;;;;;;;;;;4806962;29;20252;-39
2023/10/09 16:44:20;;;;;;;17.08;6.28;;;;;;;;;;4806899;29;20233;-39
2023/10/09 16:46:48;;;;;;;14.32;4.63;;;;;;;;;;4806818;29;20236;-39
2023/10/09 16:49:15;;;;;;;8.55;3.55;;;;;;;;;;4806497;29;20319;-40
2023/10/09 16:51:45;;;;;;;9.25;3.70;;;;;;;;;;4829766;29;20242;-38
2023/10/09 16:54:15;;;;;;;5.80;3.33;;;;;;;;;;4856717;29;20684;-39
2023/10/09 16:56:43;;;;;;;7.97;3.65;;;;;;;;;;4842799;29;20559;-39
2023/10/09 16:59:16;;;;;;;13.88;6.05;;;;;;;;;;4842709;29;20235;-42
2023/10/09 17:01:46;;;;;;;15.60;5.35;;;;;;;;;;4842770;29;20239;-39
2023/10/09 17:04:17;;;;;;;10.07;3.78;;;;;;;;;;4842708;29;20696;-39
2023/10/09 17:06:47;;;;;;;10.65;4.72;;;;;;;;;;4842511;29;20239;-39
2023/10/09 17:09:14;;;;;;;7.10;3.75;;;;;;;;;;4842042;29;20238;-39
2023/10/09 17:11:41;;;;;;;10.60;4.40;;;;;;;;;;4841144;29;20231;-39
2023/10/09 17:14:15;;;;;;;9.93;4.53;;;;;;;;;;4840901;29;20235;-41
2023/10/09 17:16:44;;;;;;;16.17;5.13;;;;;;;;;;4840907;29;20224;-39
2023/10/09 17:19:13;;;;;;;17.60;6.80;;;;;;;;;;4828975;29;20243;-40
2023/10/09 17:21:41;;;;;;;15.88;7.22;;;;;;;;;;4824541;29;20236;-39
2023/10/09 17:24:10;;;;;;;15.80;6.10;;;;;;;;;;4824345;29;20743;-43
2023/10/09 17:26:39;;;;;;;14.07;5.95;;;;;;;;;;4824314;29;20238;-39
2023/10/09 17:29:06;;;;;;;14.43;6.32;;;;;;;;;;4824364;29;20238;-39
2023/10/09 17:31:35;;;;;;;15.20;6.60;;;;;;;;;;4824008;29;20709;-39
2023/10/09 17:34:02;;;;;;;16.15;7.50;;;;;;;;;;4824069;29;20661;-39
2023/10/09 17:36:31;;;;;;;27.10;9.52;;;;;;;;;;4820554;29;20228;-38
2023/10/09 17:39:02;;;;;;;34.53;12.35;;;;;;;;;;4823810;29;20778;-38
2023/10/09 17:41:30;;;;;;;32.75;11.70;;;;;;;;;;4806648;29;20251;-37
2023/10/09 17:43:58;;;;;;;34.75;11.85;;;;;;;;;;4836810;29;20753;-37
2023/10/09 17:46:25;;;;;;;30.30;12.63;;;;;;;;;;4823741;29;20678;-38
2023/10/09 17:48:52;;;;;;;29.00;11.30;;;;;;;;;;4823135;29;20601;-37
2023/10/09 17:51:19;;;;;;;35.45;11.85;;;;;;;;;;4823454;29;20232;-38
2023/10/09 17:53:47;;;;;;;32.83;12.10;;;;;;;;;;4823715;29;20584;-39
2023/10/09 17:56:14;;;;;;;38.13;11.18;;;;;;;;;;4822888;29;20231;-39
2023/10/09 17:58:49;;;;;;;37.33;12.27;;;;;;;;;;4821967;29;20244;-38